Time;durP1;ratioP1;P1;durP2;ratioP2;P2;SDS_P1;SDS_P2;PMS_P1;PMS_P2;Temp;Humidity;BMP_temperature;BMP_pressure;BME280_temperature;BME280_humidity;BME280_pressure;Samples;Min_cycle;Max_cycle;Signal;HPM_P1;HPM_P2
2023/12/24 00:02:22;;;;;;;19.45;9.10;;;;;;;;;;4997257;28;20389;-72
2023/12/24 00:04:49;;;;;;;18.13;8.57;;;;;;;;;;5003719;28;20035;-73
2023/12/24 00:07:16;;;;;;;20.25;9.55;;;;;;;;;;4992286;28;20473;-71
2023/12/24 00:09:43;;;;;;;20.55;11.35;;;;;;;;;;4993898;28;20030;-71
2023/12/24 00:12:08;;;;;;;17.50;10.02;;;;;;;;;;4993549;28;20049;-71
2023/12/24 00:14:37;;;;;;;19.15;10.73;;;;;;;;;;4993247;28;20385;-72
2023/12/24 00:17:03;;;;;;;26.60;10.50;;;;;;;;;;4993409;28;20112;-71
2023/12/24 00:19:29;;;;;;;19.88;7.70;;;;;;;;;;4992145;28;20472;-71
2023/12/24 00:21:54;;;;;;;19.63;7.75;;;;;;;;;;4992713;28;20035;-73
2023/12/24 00:24:20;;;;;;;17.15;7.80;;;;;;;;;;4993322;28;20158;-72
2023/12/24 00:26:46;;;;;;;16.48;8.27;;;;;;;;;;4993368;28;20041;-72
2023/12/24 00:29:12;;;;;;;16.35;8.57;;;;;;;;;;4991830;28;20023;-72
2023/12/24 00:31:37;;;;;;;21.58;9.48;;;;;;;;;;4991947;28;20403;-71
2023/12/24 00:34:03;;;;;;;18.50;9.73;;;;;;;;;;4991445;28;20034;-70
2023/12/24 00:36:29;;;;;;;22.60;9.98;;;;;;;;;;4991582;28;20018;-70
2023/12/24 00:38:54;;;;;;;14.85;7.25;;;;;;;;;;4991619;28;20523;-72
2023/12/24 00:41:20;;;;;;;15.15;7.60;;;;;;;;;;4975604;28;20034;-72
2023/12/24 00:43:46;;;;;;;16.67;7.18;;;;;;;;;;4992795;28;20034;-72
2023/12/24 00:46:16;;;;;;;13.30;7.10;;;;;;;;;;4991754;28;20061;-71
2023/12/24 00:48:42;;;;;;;13.57;6.88;;;;;;;;;;4991760;28;20082;-71
2023/12/24 00:51:07;;;;;;;11.77;6.80;;;;;;;;;;4992894;28;20026;-72
2023/12/24 00:53:33;;;;;;;17.20;7.53;;;;;;;;;;4992854;28;20480;-72
2023/12/24 00:55:59;;;;;;;16.20;8.05;;;;;;;;;;4975505;28;20041;-71
2023/12/24 00:58:26;;;;;;;15.80;7.25;;;;;;;;;;4991509;28;20026;-71
2023/12/24 01:00:52;;;;;;;11.98;7.35;;;;;;;;;;4991546;28;20026;-72
2023/12/24 01:03:18;;;;;;;18.33;7.10;;;;;;;;;;4992804;28;20053;-72
2023/12/24 01:05:44;;;;;;;13.63;7.15;;;;;;;;;;4991592;28;20041;-71
2023/12/24 01:08:09;;;;;;;13.13;5.68;;;;;;;;;;4975182;28;20042;-71
2023/12/24 01:10:36;;;;;;;12.23;6.38;;;;;;;;;;4992953;28;20042;-71
2023/12/24 01:13:02;;;;;;;16.95;6.90;;;;;;;;;;4991393;28;20558;-71
2023/12/24 01:15:27;;;;;;;18.38;5.78;;;;;;;;;;4992764;28;20506;-71
2023/12/24 01:17:53;;;;;;;11.10;4.57;;;;;;;;;;4990971;28;20034;-72
2023/12/24 01:20:19;;;;;;;11.77;4.40;;;;;;;;;;4991009;28;20081;-72
2023/12/24 01:22:45;;;;;;;7.57;4.05;;;;;;;;;;4983738;28;20129;-72
2023/12/24 01:25:11;;;;;;;12.07;5.13;;;;;;;;;;4983318;28;20096;-72
2023/12/24 01:27:37;;;;;;;10.52;5.00;;;;;;;;;;4991421;28;20084;-71
2023/12/24 01:30:04;;;;;;;11.35;4.93;;;;;;;;;;4992546;28;20038;-71
2023/12/24 01:32:31;;;;;;;9.20;4.60;;;;;;;;;;4992517;28;20447;-71
2023/12/24 01:34:58;;;;;;;10.65;4.82;;;;;;;;;;4989744;28;20030;-71
2023/12/24 01:37:24;;;;;;;8.75;4.43;;;;;;;;;;5001204;28;20184;-72
2023/12/24 01:39:50;;;;;;;7.82;3.83;;;;;;;;;;4990968;28;20544;-71
2023/12/24 01:42:15;;;;;;;8.85;3.65;;;;;;;;;;4989588;28;20511;-72
2023/12/24 01:44:41;;;;;;;10.30;4.70;;;;;;;;;;4990893;28;20235;-71
2023/12/24 01:47:07;;;;;;;9.63;4.55;;;;;;;;;;4991187;28;20037;-72
2023/12/24 01:49:34;;;;;;;8.90;3.53;;;;;;;;;;4991404;28;20021;-71
2023/12/24 01:52:00;;;;;;;8.27;3.85;;;;;;;;;;4992474;28;20038;-72
2023/12/24 01:54:29;;;;;;;9.75;3.80;;;;;;;;;;4990877;28;20413;-72
2023/12/24 01:56:55;;;;;;;8.13;3.33;;;;;;;;;;4992401;28;20392;-72
2023/12/24 01:59:22;;;;;;;6.72;2.95;;;;;;;;;;4990894;28;20034;-72
2023/12/24 02:01:48;;;;;;;10.75;3.30;;;;;;;;;;4990938;28;20058;-72
2023/12/24 02:04:15;;;;;;;7.18;3.42;;;;;;;;;;4990839;28;20065;-72
2023/12/24 02:06:40;;;;;;;8.80;3.40;;;;;;;;;;4974929;28;20030;-72
2023/12/24 02:09:06;;;;;;;5.88;3.10;;;;;;;;;;4990813;28;20142;-71
2023/12/24 02:11:32;;;;;;;8.60;2.95;;;;;;;;;;4990831;28;20077;-72
2023/12/24 02:13:57;;;;;;;7.85;3.05;;;;;;;;;;4991099;28;20034;-71
2023/12/24 02:16:27;;;;;;;12.63;3.58;;;;;;;;;;4992306;28;20038;-72
2023/12/24 02:18:52;;;;;;;9.30;3.78;;;;;;;;;;4990908;28;20500;-72
2023/12/24 02:21:18;;;;;;;11.00;4.53;;;;;;;;;;4990719;28;20038;-72
2023/12/24 02:23:44;;;;;;;10.05;3.85;;;;;;;;;;4990577;28;20500;-72
2023/12/24 02:26:15;;;;;;;9.27;3.90;;;;;;;;;;4990726;28;20027;-72
2023/12/24 02:28:44;;;;;;;12.57;3.70;;;;;;;;;;4993896;28;20030;-73
2023/12/24 02:31:12;;;;;;;7.78;3.13;;;;;;;;;;4994271;28;20030;-71
2023/12/24 02:33:41;;;;;;;9.88;3.75;;;;;;;;;;4994098;28;20022;-72
2023/12/24 02:36:11;;;;;;;4.55;2.38;;;;;;;;;;4994339;28;20042;-72
2023/12/24 02:38:37;;;;;;;8.38;3.05;;;;;;;;;;4994074;28;20049;-73
2023/12/24 02:41:04;;;;;;;6.53;2.72;;;;;;;;;;4993364;28;20088;-73
2023/12/24 02:43:31;;;;;;;7.53;3.03;;;;;;;;;;4989825;28;20029;-72
2023/12/24 02:45:57;;;;;;;9.98;3.40;;;;;;;;;;4982884;28;20167;-73
2023/12/24 02:48:23;;;;;;;7.68;2.60;;;;;;;;;;4993462;28;20160;-72
2023/12/24 02:50:48;;;;;;;7.20;2.75;;;;;;;;;;4993581;28;20161;-72
2023/12/24 02:53:14;;;;;;;9.60;3.60;;;;;;;;;;4993068;28;20038;-72
2023/12/24 02:55:40;;;;;;;9.32;3.05;;;;;;;;;;4993335;28;20045;-72
2023/12/24 02:58:05;;;;;;;9.52;3.15;;;;;;;;;;4985267;28;20388;-71
2023/12/24 03:00:31;;;;;;;8.00;3.20;;;;;;;;;;4993743;28;20042;-72
2023/12/24 03:02:57;;;;;;;10.60;3.13;;;;;;;;;;4993756;28;20038;-71
2023/12/24 03:05:23;;;;;;;6.72;3.03;;;;;;;;;;4993491;28;20040;-72
2023/12/24 03:07:49;;;;;;;6.28;2.90;;;;;;;;;;4993018;28;20038;-72
2023/12/24 03:10:14;;;;;;;8.45;2.97;;;;;;;;;;4994479;28;20026;-72
2023/12/24 03:12:40;;;;;;;8.88;3.42;;;;;;;;;;5006054;28;20511;-72
2023/12/24 03:15:07;;;;;;;10.27;4.97;;;;;;;;;;4972003;28;20409;-72
2023/12/24 03:17:32;;;;;;;7.28;3.00;;;;;;;;;;4973526;28;20039;-72
2023/12/24 03:19:58;;;;;;;5.68;2.72;;;;;;;;;;4971866;28;20023;-72
2023/12/24 03:22:24;;;;;;;6.05;3.40;;;;;;;;;;4973580;28;20401;-72
2023/12/24 03:24:50;;;;;;;7.68;3.10;;;;;;;;;;5004781;28;20041;-72
2023/12/24 03:27:16;;;;;;;9.25;3.15;;;;;;;;;;4972408;28;20228;-72
2023/12/24 03:29:43;;;;;;;6.35;3.10;;;;;;;;;;4973730;28;20118;-73
2023/12/24 03:32:09;;;;;;;12.27;4.03;;;;;;;;;;4973713;28;20151;-72
2023/12/24 03:34:35;;;;;;;9.85;3.63;;;;;;;;;;5006060;28;20485;-72
2023/12/24 03:37:01;;;;;;;6.30;2.60;;;;;;;;;;4974864;28;20042;-73
2023/12/24 03:39:26;;;;;;;11.40;3.67;;;;;;;;;;4973536;28;20055;-71
2023/12/24 03:41:52;;;;;;;6.90;3.00;;;;;;;;;;4986614;28;20039;-72
2023/12/24 03:44:18;;;;;;;7.07;2.75;;;;;;;;;;4993639;28;20022;-72
2023/12/24 03:46:44;;;;;;;5.72;2.85;;;;;;;;;;4993047;28;20044;-72
2023/12/24 03:49:10;;;;;;;8.80;3.05;;;;;;;;;;4989284;28;20117;-72
2023/12/24 03:51:36;;;;;;;4.25;2.53;;;;;;;;;;4993423;28;20491;-72
2023/12/24 03:54:02;;;;;;;7.03;2.80;;;;;;;;;;4975707;28;20038;-72
2023/12/24 03:56:28;;;;;;;9.20;3.00;;;;;;;;;;4976107;28;20034;-72
2023/12/24 03:58:55;;;;;;;7.80;3.20;;;;;;;;;;4993469;28;20369;-72
2023/12/24 04:01:27;;;;;;;7.22;2.70;;;;;;;;;;4992202;28;20051;-72
2023/12/24 04:03:53;;;;;;;14.43;5.10;;;;;;;;;;4991355;28;20042;-72
2023/12/24 04:06:19;;;;;;;11.38;3.78;;;;;;;;;;4992073;28;20391;-72
2023/12/24 04:08:45;;;;;;;10.10;2.95;;;;;;;;;;4992375;28;20037;-72
2023/12/24 04:11:15;;;;;;;6.20;2.92;;;;;;;;;;4992641;28;20030;-72
2023/12/24 04:13:42;;;;;;;6.40;2.72;;;;;;;;;;4993025;28;20113;-73
2023/12/24 04:16:08;;;;;;;7.88;3.25;;;;;;;;;;4988269;28;20027;-71
2023/12/24 04:18:34;;;;;;;9.23;2.80;;;;;;;;;;4985757;28;20035;-72
2023/12/24 04:21:00;;;;;;;6.57;2.80;;;;;;;;;;4989843;28;20034;-71
2023/12/24 04:23:26;;;;;;;11.68;4.35;;;;;;;;;;4992078;28;20034;-72
2023/12/24 04:25:52;;;;;;;7.78;2.47;;;;;;;;;;4975763;28;20061;-73
2023/12/24 04:28:17;;;;;;;10.05;3.45;;;;;;;;;;4991715;28;20121;-72
2023/12/24 04:30:43;;;;;;;9.95;3.47;;;;;;;;;;4990550;28;20018;-71
2023/12/24 04:33:10;;;;;;;9.57;2.95;;;;;;;;;;4991530;28;20037;-72
2023/12/24 04:35:36;;;;;;;8.90;3.47;;;;;;;;;;4991758;28;20400;-72
2023/12/24 04:38:03;;;;;;;7.25;3.00;;;;;;;;;;4991694;28;20038;-72
2023/12/24 04:40:29;;;;;;;8.13;2.70;;;;;;;;;;4986854;28;20040;-72
2023/12/24 04:42:55;;;;;;;7.20;2.65;;;;;;;;;;4991530;28;20073;-72
2023/12/24 04:45:21;;;;;;;5.15;2.60;;;;;;;;;;4975065;28;20057;-71
2023/12/24 04:47:46;;;;;;;5.57;2.72;;;;;;;;;;4992697;28;20461;-71
2023/12/24 04:50:13;;;;;;;8.65;3.25;;;;;;;;;;4991021;28;20034;-72
2023/12/24 04:52:39;;;;;;;9.65;3.05;;;;;;;;;;4989799;28;20019;-72
2023/12/24 04:55:06;;;;;;;7.88;2.88;;;;;;;;;;4991010;28;20030;-72
2023/12/24 04:57:33;;;;;;;9.07;2.92;;;;;;;;;;4988479;28;20185;-72
2023/12/24 04:59:59;;;;;;;6.18;2.72;;;;;;;;;;4991323;28;20025;-73
2023/12/24 05:02:26;;;;;;;6.70;2.65;;;;;;;;;;4988021;28;20089;-72
2023/12/24 05:04:55;;;;;;;6.00;2.58;;;;;;;;;;4988168;28;20407;-72
2023/12/24 05:07:21;;;;;;;8.15;2.58;;;;;;;;;;4991123;28;20495;-72
2023/12/24 05:09:47;;;;;;;6.68;2.72;;;;;;;;;;4991522;28;20042;-72
2023/12/24 05:12:12;;;;;;;10.68;3.00;;;;;;;;;;4990904;28;20128;-72
2023/12/24 05:14:38;;;;;;;8.43;2.85;;;;;;;;;;4990642;28;20468;-71
2023/12/24 05:17:04;;;;;;;8.80;2.58;;;;;;;;;;4975555;28;20058;-73
2023/12/24 05:19:29;;;;;;;7.25;3.10;;;;;;;;;;4990605;28;20034;-72
2023/12/24 05:21:55;;;;;;;8.35;3.20;;;;;;;;;;4990998;28;20153;-72
2023/12/24 05:24:21;;;;;;;6.72;3.70;;;;;;;;;;4992153;28;20034;-72
2023/12/24 05:26:47;;;;;;;9.88;5.18;;;;;;;;;;4990812;28;20038;-72
2023/12/24 05:29:13;;;;;;;8.75;3.67;;;;;;;;;;4992143;28;20034;-71
2023/12/24 05:31:39;;;;;;;5.03;2.75;;;;;;;;;;4992135;28;20072;-72
2023/12/24 05:34:06;;;;;;;9.68;4.40;;;;;;;;;;4992449;28;20030;-72
2023/12/24 05:36:35;;;;;;;7.57;3.92;;;;;;;;;;4992477;28;20026;-72
2023/12/24 05:39:00;;;;;;;7.55;3.88;;;;;;;;;;4992054;28;20489;-71
2023/12/24 05:41:27;;;;;;;18.77;5.50;;;;;;;;;;4991762;28;20170;-73
2023/12/24 05:43:52;;;;;;;8.77;4.57;;;;;;;;;;4991837;28;20031;-72
2023/12/24 05:46:20;;;;;;;6.47;3.13;;;;;;;;;;4991869;28;20046;-72
2023/12/24 05:48:46;;;;;;;9.50;2.80;;;;;;;;;;4992102;28;20045;-72
2023/12/24 05:51:13;;;;;;;6.97;3.10;;;;;;;;;;4991848;28;20022;-72
2023/12/24 05:53:38;;;;;;;5.90;2.75;;;;;;;;;;4991905;28;20089;-72
2023/12/24 05:56:04;;;;;;;6.15;3.55;;;;;;;;;;4991899;28;20042;-72
2023/12/24 05:58:30;;;;;;;8.48;3.28;;;;;;;;;;4991886;28;20558;-72
2023/12/24 06:00:55;;;;;;;13.05;6.10;;;;;;;;;;4992206;28;20058;-73
2023/12/24 06:03:21;;;;;;;12.10;4.68;;;;;;;;;;4994809;28;20147;-72
2023/12/24 06:05:47;;;;;;;9.52;5.68;;;;;;;;;;4995857;28;20029;-72
2023/12/24 06:08:16;;;;;;;11.55;3.70;;;;;;;;;;4995484;28;20404;-72
2023/12/24 06:10:43;;;;;;;8.52;3.55;;;;;;;;;;4995424;28;20034;-72
2023/12/24 06:13:09;;;;;;;6.97;3.13;;;;;;;;;;4995790;28;20022;-71
2023/12/24 06:15:34;;;;;;;5.18;2.80;;;;;;;;;;4994622;28;20161;-72
2023/12/24 06:18:01;;;;;;;5.95;2.53;;;;;;;;;;4992404;28;20437;-72
2023/12/24 06:20:29;;;;;;;6.90;2.65;;;;;;;;;;4990807;28;20026;-72
2023/12/24 06:22:55;;;;;;;10.90;4.47;;;;;;;;;;4988611;28;20045;-72
2023/12/24 06:25:21;;;;;;;7.78;3.80;;;;;;;;;;4989168;28;20484;-72
2023/12/24 06:27:47;;;;;;;9.77;4.50;;;;;;;;;;4988003;28;20036;-72
2023/12/24 06:30:13;;;;;;;11.00;4.75;;;;;;;;;;4988828;28;20491;-72
2023/12/24 06:32:43;;;;;;;11.05;4.65;;;;;;;;;;4990894;28;20062;-72
2023/12/24 06:35:10;;;;;;;11.05;4.68;;;;;;;;;;4992048;28;20031;-71
2023/12/24 06:37:36;;;;;;;17.75;9.65;;;;;;;;;;4994858;28;20046;-73
2023/12/24 06:40:03;;;;;;;19.08;9.93;;;;;;;;;;4989923;28;20157;-72
2023/12/24 06:42:29;;;;;;;11.88;6.30;;;;;;;;;;4989416;28;20030;-71
2023/12/24 06:44:55;;;;;;;12.60;5.15;;;;;;;;;;4989281;28;20080;-73
2023/12/24 06:47:20;;;;;;;14.65;4.57;;;;;;;;;;4992331;28;20377;-73
2023/12/24 06:49:46;;;;;;;11.27;4.57;;;;;;;;;;4988532;28;20104;-72
2023/12/24 06:52:12;;;;;;;14.38;4.60;;;;;;;;;;4991851;28;20035;-72
2023/12/24 06:54:38;;;;;;;10.30;4.10;;;;;;;;;;4985154;28;20030;-72
2023/12/24 06:57:05;;;;;;;12.85;5.00;;;;;;;;;;4977878;28;20141;-73
2023/12/24 06:59:30;;;;;;;18.30;5.63;;;;;;;;;;4985825;28;20042;-73
2023/12/24 07:01:56;;;;;;;16.00;5.53;;;;;;;;;;4994077;28;20042;-73
2023/12/24 07:04:23;;;;;;;10.23;5.47;;;;;;;;;;4993465;28;20096;-73
2023/12/24 07:06:48;;;;;;;13.40;5.85;;;;;;;;;;4997762;28;20180;-73
2023/12/24 07:09:14;;;;;;;13.95;5.55;;;;;;;;;;5010065;28;20030;-71
2023/12/24 07:11:40;;;;;;;11.77;4.85;;;;;;;;;;5011737;28;20172;-73
2023/12/24 07:14:05;;;;;;;15.25;5.85;;;;;;;;;;5002837;28;20117;-72
2023/12/24 07:16:31;;;;;;;17.10;6.10;;;;;;;;;;4998246;28;20069;-73
2023/12/24 07:18:57;;;;;;;16.40;6.55;;;;;;;;;;4992201;28;20030;-73
2023/12/24 07:21:23;;;;;;;10.95;4.88;;;;;;;;;;4992378;28;20026;-74
2023/12/24 07:23:49;;;;;;;15.40;5.25;;;;;;;;;;4990361;28;20072;-73
2023/12/24 07:26:15;;;;;;;17.67;6.85;;;;;;;;;;4993653;28;20057;-73
2023/12/24 07:28:40;;;;;;;21.95;6.90;;;;;;;;;;5008709;28;20038;-73
2023/12/24 07:31:06;;;;;;;23.77;9.65;;;;;;;;;;5002001;28;20049;-73
2023/12/24 07:33:33;;;;;;;19.60;9.82;;;;;;;;;;4992874;28;20022;-72
2023/12/24 07:35:59;;;;;;;17.40;9.60;;;;;;;;;;4998524;28;20034;-73
2023/12/24 07:38:29;;;;;;;22.40;7.38;;;;;;;;;;5013010;28;20045;-71
2023/12/24 07:40:56;;;;;;;11.68;5.78;;;;;;;;;;5012596;28;20464;-70
2023/12/24 07:43:22;;;;;;;13.55;5.70;;;;;;;;;;4995217;28;20106;-74
2023/12/24 07:45:48;;;;;;;15.55;6.20;;;;;;;;;;4993469;28;20532;-74
2023/12/24 07:48:13;;;;;;;13.75;6.22;;;;;;;;;;4993508;28;20053;-72
2023/12/24 07:50:42;;;;;;;15.60;6.13;;;;;;;;;;4995882;28;20026;-72
2023/12/24 07:53:07;;;;;;;12.15;6.28;;;;;;;;;;5012336;28;20502;-74
2023/12/24 07:55:34;;;;;;;13.38;6.22;;;;;;;;;;5012275;28;20017;-74
2023/12/24 07:58:00;;;;;;;14.20;6.38;;;;;;;;;;5006064;28;20457;-74
2023/12/24 08:00:26;;;;;;;17.05;7.10;;;;;;;;;;5008650;28;20034;-74
2023/12/24 08:02:52;;;;;;;18.13;7.13;;;;;;;;;;4992226;28;20018;-74
2023/12/24 08:05:17;;;;;;;17.83;6.38;;;;;;;;;;5000711;28;20030;-72
2023/12/24 08:07:43;;;;;;;13.05;6.13;;;;;;;;;;5010382;28;20034;-71
2023/12/24 08:10:09;;;;;;;12.45;5.97;;;;;;;;;;4997689;28;20018;-72
2023/12/24 08:12:34;;;;;;;13.77;6.05;;;;;;;;;;4991995;28;20034;-73
2023/12/24 08:15:02;;;;;;;19.17;9.60;;;;;;;;;;5006273;28;20380;-73
2023/12/24 08:17:28;;;;;;;21.83;10.63;;;;;;;;;;4994623;28;20061;-73
2023/12/24 08:19:54;;;;;;;22.40;10.45;;;;;;;;;;5006649;28;20077;-73
2023/12/24 08:22:20;;;;;;;20.38;10.35;;;;;;;;;;4990111;28;20038;-73
2023/12/24 08:24:46;;;;;;;20.58;10.52;;;;;;;;;;4989016;28;20028;-74
2023/12/24 08:27:12;;;;;;;18.70;9.55;;;;;;;;;;5000182;28;20038;-73
2023/12/24 08:29:38;;;;;;;19.77;10.60;;;;;;;;;;5002035;28;20068;-73
2023/12/24 08:32:05;;;;;;;16.23;9.73;;;;;;;;;;4998223;28;20021;-72
2023/12/24 08:34:32;;;;;;;22.95;11.30;;;;;;;;;;4999750;28;20049;-74
2023/12/24 08:36:58;;;;;;;22.55;10.38;;;;;;;;;;4998043;28;20046;-73
2023/12/24 08:39:24;;;;;;;24.15;10.02;;;;;;;;;;4999720;28;20456;-74
2023/12/24 08:41:50;;;;;;;28.58;11.05;;;;;;;;;;4999398;28;20038;-73
2023/12/24 08:44:16;;;;;;;22.50;11.25;;;;;;;;;;4988726;28;20428;-72
2023/12/24 08:46:45;;;;;;;14.93;8.50;;;;;;;;;;4999493;28;20439;-73
2023/12/24 08:49:11;;;;;;;13.80;7.25;;;;;;;;;;4989364;28;20089;-73
2023/12/24 08:51:37;;;;;;;15.02;7.22;;;;;;;;;;5002200;28;20412;-74
2023/12/24 08:54:03;;;;;;;16.25;8.43;;;;;;;;;;5001135;28;20022;-73
2023/12/24 08:56:33;;;;;;;16.30;8.35;;;;;;;;;;5001488;28;20049;-75
2023/12/24 08:58:59;;;;;;;16.92;8.02;;;;;;;;;;4999417;28;20538;-74
2023/12/24 09:01:24;;;;;;;12.90;8.20;;;;;;;;;;5014674;28;20058;-71
2023/12/24 09:03:50;;;;;;;16.90;8.80;;;;;;;;;;4999668;28;20034;-72
2023/12/24 09:06:16;;;;;;;13.65;6.55;;;;;;;;;;4997937;28;20037;-74
2023/12/24 09:08:41;;;;;;;16.60;8.93;;;;;;;;;;5003501;28;20029;-74
2023/12/24 09:11:07;;;;;;;23.27;11.50;;;;;;;;;;5005383;28;20050;-74
2023/12/24 09:13:33;;;;;;;20.48;10.40;;;;;;;;;;4998591;28;20042;-74
2023/12/24 09:15:58;;;;;;;25.30;10.10;;;;;;;;;;4986362;28;20503;-74
2023/12/24 09:18:24;;;;;;;22.98;11.10;;;;;;;;;;4987134;28;20068;-73
2023/12/24 09:20:51;;;;;;;20.17;10.00;;;;;;;;;;4991593;28;20038;-74
2023/12/24 09:23:17;;;;;;;20.73;8.65;;;;;;;;;;4991554;28;20070;-72
2023/12/24 09:25:42;;;;;;;15.15;8.98;;;;;;;;;;4991537;28;20069;-72
2023/12/24 09:28:08;;;;;;;19.92;8.68;;;;;;;;;;4992059;28;20030;-73
2023/12/24 09:30:34;;;;;;;20.75;11.00;;;;;;;;;;4992008;28;20026;-72
2023/12/24 09:32:59;;;;;;;11.35;5.63;;;;;;;;;;4990105;28;20117;-73
2023/12/24 09:35:27;;;;;;;12.77;5.13;;;;;;;;;;4990895;28;20480;-73
2023/12/24 09:37:53;;;;;;;12.95;4.68;;;;;;;;;;5002088;28;20030;-76
2023/12/24 09:40:18;;;;;;;12.82;4.78;;;;;;;;;;4995632;28;20033;-73
2023/12/24 09:42:44;;;;;;;8.00;4.43;;;;;;;;;;4994423;28;20577;-74
2023/12/24 09:45:10;;;;;;;8.80;4.25;;;;;;;;;;4995745;28;20034;-74
2023/12/24 09:47:36;;;;;;;8.30;4.05;;;;;;;;;;4995071;28;20463;-73
2023/12/24 09:50:04;;;;;;;13.45;4.50;;;;;;;;;;4995399;28;20045;-75
2023/12/24 09:52:29;;;;;;;9.43;3.30;;;;;;;;;;4995465;28;20026;-72
2023/12/24 09:54:55;;;;;;;8.07;3.20;;;;;;;;;;4995354;28;20030;-73
2023/12/24 09:57:24;;;;;;;8.88;4.57;;;;;;;;;;4995036;28;20286;-76
2023/12/24 09:59:49;;;;;;;8.40;3.70;;;;;;;;;;4993593;28;20022;-74
2023/12/24 10:02:15;;;;;;;7.28;2.78;;;;;;;;;;4993774;28;20100;-75
2023/12/24 10:04:41;;;;;;;10.73;4.43;;;;;;;;;;4994884;28;20117;-75
2023/12/24 10:07:09;;;;;;;12.50;4.20;;;;;;;;;;4993804;28;20079;-75
2023/12/24 10:09:49;;;;;;;11.65;3.75;;;;;;;;;;4994242;28;20034;-75
2023/12/24 10:12:15;;;;;;;10.18;4.20;;;;;;;;;;4994860;28;20039;-74
2023/12/24 10:14:52;;;;;;;13.40;4.38;;;;;;;;;;4994814;28;20349;-74
2023/12/24 10:17:33;;;;;;;9.48;3.58;;;;;;;;;;4993437;28;20077;-75
2023/12/24 10:20:04;;;;;;;5.10;2.60;;;;;;;;;;4994709;28;20030;-73
2023/12/24 10:22:31;;;;;;;11.18;3.10;;;;;;;;;;4995083;28;20042;-74
2023/12/24 10:25:01;;;;;;;8.75;3.40;;;;;;;;;;4994424;28;20246;-74
2023/12/24 10:27:27;;;;;;;9.88;3.75;;;;;;;;;;4995401;28;20042;-75
2023/12/24 10:29:55;;;;;;;6.45;2.65;;;;;;;;;;4995275;28;20089;-73
2023/12/24 10:32:24;;;;;;;8.02;2.30;;;;;;;;;;4995437;28;20042;-75
2023/12/24 10:34:59;;;;;;;7.60;2.58;;;;;;;;;;4994811;28;20435;-74
2023/12/24 10:37:29;;;;;;;8.95;2.90;;;;;;;;;;4994529;28;20038;-75
2023/12/24 10:40:09;;;;;;;6.35;2.28;;;;;;;;;;4993246;28;20053;-73
2023/12/24 10:42:36;;;;;;;4.88;1.90;;;;;;;;;;4994026;28;20128;-75
2023/12/24 10:45:07;;;;;;;9.27;2.28;;;;;;;;;;4991811;28;20049;-76
2023/12/24 10:47:34;;;;;;;7.35;2.50;;;;;;;;;;4991863;28;20133;-75
2023/12/24 10:50:00;;;;;;;8.23;3.03;;;;;;;;;;4994527;28;20507;-75
2023/12/24 10:52:25;;;;;;;10.18;2.80;;;;;;;;;;4994443;28;20026;-75
2023/12/24 10:54:54;;;;;;;14.88;3.83;;;;;;;;;;4994175;28;20045;-74
2023/12/24 10:57:41;;;;;;;9.23;2.88;;;;;;;;;;4993800;28;20133;-73
2023/12/24 11:00:10;;;;;;;11.77;3.80;;;;;;;;;;4993076;28;20475;-74
2023/12/24 11:02:49;;;;;;;6.57;3.15;;;;;;;;;;4992673;28;20030;-75
2023/12/24 11:05:39;;;;;;;8.10;2.70;;;;;;;;;;4993197;28;20031;-76
2023/12/24 11:08:28;;;;;;;7.13;2.38;;;;;;;;;;4994200;28;20420;-76
2023/12/24 11:10:54;;;;;;;8.27;2.85;;;;;;;;;;4993102;28;20404;-74
2023/12/24 11:13:32;;;;;;;10.32;3.38;;;;;;;;;;4995709;28;20023;-76
2023/12/24 11:16:03;;;;;;;10.32;3.55;;;;;;;;;;4993681;28;20522;-76
2023/12/24 11:18:49;;;;;;;12.55;3.90;;;;;;;;;;4993212;28;20357;-75
2023/12/24 11:21:17;;;;;;;8.13;4.03;;;;;;;;;;4993580;28;20045;-76
2023/12/24 11:24:08;;;;;;;11.35;4.25;;;;;;;;;;4992651;28;20050;-73
2023/12/24 11:26:34;;;;;;;11.90;4.30;;;;;;;;;;4992622;28;20042;-76
2023/12/24 11:29:01;;;;;;;12.60;4.10;;;;;;;;;;4994018;28;20370;-75
2023/12/24 11:31:27;;;;;;;10.85;3.70;;;;;;;;;;4994101;28;20054;-74
2023/12/24 11:33:56;;;;;;;9.15;4.20;;;;;;;;;;4993049;28;20053;-74
2023/12/24 11:36:24;;;;;;;8.70;3.60;;;;;;;;;;4992554;28;20038;-74
2023/12/24 11:38:55;;;;;;;10.00;3.70;;;;;;;;;;4993542;28;20085;-72
2023/12/24 11:41:22;;;;;;;10.55;3.85;;;;;;;;;;4992808;28;20444;-75
2023/12/24 11:43:58;;;;;;;9.45;4.18;;;;;;;;;;4993417;28;20031;-74
2023/12/24 11:46:34;;;;;;;14.82;3.92;;;;;;;;;;4993347;28;20052;-75
2023/12/24 11:49:02;;;;;;;8.80;3.20;;;;;;;;;;4992538;28;20506;-73
2023/12/24 11:51:29;;;;;;;6.80;3.70;;;;;;;;;;4991739;28;20102;-73
2023/12/24 11:54:04;;;;;;;11.52;5.57;;;;;;;;;;4992259;28;20030;-74
2023/12/24 11:56:32;;;;;;;13.38;6.18;;;;;;;;;;5007226;28;20106;-74
2023/12/24 11:59:00;;;;;;;12.38;6.18;;;;;;;;;;5023438;28;20516;-75
2023/12/24 12:01:30;;;;;;;11.20;4.70;;;;;;;;;;4992671;28;20092;-75
2023/12/24 12:04:00;;;;;;;11.27;4.40;;;;;;;;;;4992787;28;20042;-75
2023/12/24 12:06:29;;;;;;;10.63;4.90;;;;;;;;;;4991974;28;20032;-75
2023/12/24 12:08:58;;;;;;;11.43;3.95;;;;;;;;;;4993235;28;20041;-75
2023/12/24 12:11:24;;;;;;;13.77;4.18;;;;;;;;;;4993416;28;20392;-75
2023/12/24 12:13:50;;;;;;;8.95;3.80;;;;;;;;;;5007907;28;20038;-74
2023/12/24 12:16:15;;;;;;;10.90;4.35;;;;;;;;;;4992947;28;20070;-74
2023/12/24 12:18:43;;;;;;;7.43;3.75;;;;;;;;;;4993210;28;20117;-73
2023/12/24 12:21:11;;;;;;;6.10;2.78;;;;;;;;;;4991820;28;20109;-75
2023/12/24 12:23:39;;;;;;;9.65;3.60;;;;;;;;;;4992581;28;20096;-74
2023/12/24 12:26:08;;;;;;;6.40;2.60;;;;;;;;;;4993175;28;20114;-74
2023/12/24 12:28:35;;;;;;;9.93;2.88;;;;;;;;;;4993430;28;20392;-73
2023/12/24 12:31:01;;;;;;;8.57;3.55;;;;;;;;;;4993380;28;20038;-72
2023/12/24 12:33:27;;;;;;;9.05;3.38;;;;;;;;;;4992916;28;20046;-74
2023/12/24 12:35:55;;;;;;;13.82;3.80;;;;;;;;;;5008117;28;20096;-74
2023/12/24 12:38:22;;;;;;;7.85;3.92;;;;;;;;;;5008552;28;20038;-74
2023/12/24 12:40:50;;;;;;;11.18;4.68;;;;;;;;;;5024826;28;20373;-73
2023/12/24 12:43:22;;;;;;;14.50;4.75;;;;;;;;;;4992791;28;20053;-73
2023/12/24 12:45:47;;;;;;;14.52;5.50;;;;;;;;;;4992857;28;20089;-75
2023/12/24 12:48:13;;;;;;;17.58;7.43;;;;;;;;;;4992760;28;20500;-75
2023/12/24 12:50:40;;;;;;;12.15;5.13;;;;;;;;;;4992562;28;20072;-73
2023/12/24 12:53:06;;;;;;;8.63;3.75;;;;;;;;;;4992458;28;20439;-75
2023/12/24 12:55:32;;;;;;;10.65;4.47;;;;;;;;;;4991418;28;20113;-73
2023/12/24 12:57:58;;;;;;;11.25;5.72;;;;;;;;;;4991305;28;20484;-74
2023/12/24 13:00:24;;;;;;;13.77;5.88;;;;;;;;;;4990121;28;20041;-75
2023/12/24 13:02:50;;;;;;;12.60;5.55;;;;;;;;;;4992530;28;20046;-75
2023/12/24 13:05:27;;;;;;;10.68;5.63;;;;;;;;;;4990821;28;20046;-75
2023/12/24 13:07:57;;;;;;;12.50;4.53;;;;;;;;;;4992205;28;20042;-75
2023/12/24 13:10:26;;;;;;;19.83;10.25;;;;;;;;;;4992120;28;20029;-73
2023/12/24 13:13:24;;;;;;;15.07;7.47;;;;;;;;;;4991855;28;20026;-74
2023/12/24 13:16:07;;;;;;;15.40;5.43;;;;;;;;;;5001432;28;20050;-73
2023/12/24 13:18:34;;;;;;;14.48;7.65;;;;;;;;;;4987398;28;20045;-74
2023/12/24 13:21:04;;;;;;;14.25;6.43;;;;;;;;;;4987885;28;20065;-74
2023/12/24 13:23:32;;;;;;;16.40;7.20;;;;;;;;;;4990783;28;20054;-75
2023/12/24 13:26:00;;;;;;;15.25;7.38;;;;;;;;;;4991941;28;20492;-75
2023/12/24 13:28:26;;;;;;;16.45;7.63;;;;;;;;;;4990640;28;20117;-75
2023/12/24 13:30:53;;;;;;;16.33;6.82;;;;;;;;;;4992619;28;20227;-75
2023/12/24 13:33:20;;;;;;;14.10;6.50;;;;;;;;;;4990832;28;20027;-75
2023/12/24 13:35:46;;;;;;;11.85;6.40;;;;;;;;;;4987897;28;20451;-74
2023/12/24 13:38:17;;;;;;;18.73;9.73;;;;;;;;;;4990208;28;20022;-75
2023/12/24 13:40:44;;;;;;;13.45;6.70;;;;;;;;;;4985227;28;20503;-76
2023/12/24 13:43:11;;;;;;;12.52;6.05;;;;;;;;;;4983356;28;20034;-75
2023/12/24 13:45:37;;;;;;;12.77;6.30;;;;;;;;;;4988183;28;20557;-73
2023/12/24 13:48:04;;;;;;;15.65;6.90;;;;;;;;;;4991146;28;20043;-75
2023/12/24 13:50:34;;;;;;;11.57;4.85;;;;;;;;;;4991381;28;20113;-73
2023/12/24 13:53:01;;;;;;;15.77;5.80;;;;;;;;;;4991141;28;20040;-74
2023/12/24 13:55:30;;;;;;;16.48;5.22;;;;;;;;;;4989818;28;20057;-75
2023/12/24 13:57:56;;;;;;;17.50;8.20;;;;;;;;;;4991976;28;20038;-76
2023/12/24 14:00:23;;;;;;;12.98;5.88;;;;;;;;;;4991219;28;20074;-75
2023/12/24 14:02:49;;;;;;;15.98;5.60;;;;;;;;;;4991156;28;20022;-75
2023/12/24 14:05:15;;;;;;;13.35;5.90;;;;;;;;;;4991766;28;20502;-76
2023/12/24 14:07:45;;;;;;;12.70;6.03;;;;;;;;;;4991182;28;20545;-75
2023/12/24 14:10:12;;;;;;;16.08;5.95;;;;;;;;;;4988560;28;20116;-74
2023/12/24 14:12:39;;;;;;;15.27;6.60;;;;;;;;;;4999663;28;20030;-76
2023/12/24 14:15:09;;;;;;;15.50;5.90;;;;;;;;;;5000558;28;20619;-74
2023/12/24 14:17:36;;;;;;;5.13;1.85;;;;;;;;;;5002963;28;20095;-74
2023/12/24 14:20:07;;;;;;;7.10;2.53;;;;;;;;;;5001629;28;20021;-74
2023/12/24 14:22:33;;;;;;;7.60;2.78;;;;;;;;;;5001847;28;20372;-74
2023/12/24 14:24:59;;;;;;;9.57;3.03;;;;;;;;;;5004723;28;20042;-73
2023/12/24 14:27:26;;;;;;;9.27;4.10;;;;;;;;;;5004549;28;20026;-74
2023/12/24 14:29:54;;;;;;;12.18;4.75;;;;;;;;;;4998513;28;20045;-73
2023/12/24 14:32:20;;;;;;;15.65;4.63;;;;;;;;;;4997274;28;20065;-74
2023/12/24 14:34:46;;;;;;;8.18;2.80;;;;;;;;;;5013552;28;20022;-74
2023/12/24 14:37:11;;;;;;;6.35;2.90;;;;;;;;;;5013928;28;20514;-75